createdAt,value
2018-03-24T00:01:39.295Z,6.89
2018-03-24T00:04:07.566Z,6.94
2018-03-24T00:06:35.848Z,6.92
2018-03-24T00:09:04.116Z,7.03
2018-03-24T00:11:32.377Z,6.85
2018-03-24T00:14:00.676Z,6.80
2018-03-24T00:16:28.944Z,6.72
2018-03-24T00:18:57.219Z,6.85
2018-03-24T00:21:25.488Z,6.77
2018-03-24T00:23:53.762Z,6.77
2018-03-24T00:26:22.036Z,6.77
2018-03-24T00:28:50.324Z,6.53
2018-03-24T00:31:18.592Z,6.69
2018-03-24T00:33:46.864Z,6.75
2018-03-24T00:36:15.151Z,6.79
2018-03-24T00:38:43.418Z,6.62
2018-03-24T00:41:11.700Z,6.44
2018-03-24T00:43:39.964Z,6.54
2018-03-24T00:46:08.240Z,6.56
2018-03-24T00:48:36.511Z,6.44
2018-03-24T00:51:05.723Z,6.36
2018-03-24T00:53:33.992Z,6.42
2018-03-24T00:56:02.281Z,6.25
2018-03-24T00:58:30.549Z,6.39
2018-03-24T01:00:58.820Z,6.51
2018-03-24T01:03:27.092Z,6.39
2018-03-24T01:05:55.364Z,6.44
2018-03-24T01:08:23.644Z,6.38
2018-03-24T01:10:51.924Z,6.24
2018-03-24T01:13:20.229Z,6.02
2018-03-24T01:15:48.503Z,6.12
2018-03-24T01:18:16.764Z,6.11
2018-03-24T01:20:45.043Z,6.02
2018-03-24T01:23:13.332Z,6.09
2018-03-24T01:25:41.620Z,5.72
2018-03-24T01:28:10.186Z,5.85
2018-03-24T01:30:38.452Z,5.65
2018-03-24T01:33:06.774Z,5.36
2018-03-24T01:35:35.043Z,5.19
2018-03-24T01:38:03.343Z,5.51
2018-03-24T01:40:31.635Z,5.21
2018-03-24T01:42:59.911Z,5.46
2018-03-24T01:45:28.184Z,5.48
2018-03-24T01:47:56.477Z,5.58
2018-03-24T01:50:24.739Z,5.39
2018-03-24T01:52:53.029Z,5.31
2018-03-24T01:55:21.295Z,5.26
2018-03-24T01:57:49.580Z,5.47
2018-03-24T02:00:17.846Z,5.53
2018-03-24T02:02:46.119Z,5.43
2018-03-24T02:05:14.404Z,5.16
2018-03-24T02:07:42.676Z,5.04
2018-03-24T02:10:10.960Z,4.53
2018-03-24T02:12:39.244Z,4.89
2018-03-24T02:15:07.524Z,4.80
2018-03-24T02:17:35.798Z,4.99
2018-03-24T02:20:04.072Z,5.02
2018-03-24T02:22:32.350Z,5.05
2018-03-24T02:25:13.379Z,4.91
2018-03-24T02:27:41.651Z,5.01
2018-03-24T02:30:09.941Z,5.05
2018-03-24T02:32:38.222Z,4.99
2018-03-24T02:35:06.483Z,5.02
2018-03-24T02:37:34.768Z,5.01
2018-03-24T02:40:03.039Z,4.91
2018-03-24T02:42:31.320Z,4.64
2018-03-24T02:44:59.601Z,4.82
2018-03-24T02:47:27.880Z,4.55
2018-03-24T02:49:56.152Z,4.72
2018-03-24T02:52:24.437Z,4.74
2018-03-24T02:54:52.717Z,4.84
2018-03-24T02:57:20.983Z,4.88
2018-03-24T02:59:49.257Z,4.61
2018-03-24T03:02:17.533Z,4.65
2018-03-24T03:04:45.819Z,4.54
2018-03-24T03:07:14.092Z,4.55
2018-03-24T03:09:42.371Z,4.39
2018-03-24T03:12:10.644Z,4.61
2018-03-24T03:14:38.936Z,4.70
2018-03-24T03:17:07.208Z,4.71
2018-03-24T03:19:35.484Z,4.74
2018-03-24T03:22:03.768Z,4.86
2018-03-24T03:24:32.040Z,4.93
2018-03-24T03:27:00.323Z,4.86
2018-03-24T03:29:28.596Z,4.94
2018-03-24T03:32:01.883Z,4.82
2018-03-24T03:34:30.160Z,4.67
2018-03-24T03:37:03.004Z,4.70
2018-03-24T03:39:31.280Z,4.93
2018-03-24T03:41:59.560Z,4.89
2018-03-24T03:44:27.840Z,4.79
2018-03-24T03:46:56.116Z,4.82
2018-03-24T03:49:24.392Z,4.74
2018-03-24T03:51:52.668Z,4.64
2018-03-24T03:54:20.947Z,4.83
2018-03-24T03:56:49.227Z,4.80
2018-03-24T03:59:17.511Z,4.75
2018-03-24T04:01:45.780Z,4.96
2018-03-24T04:04:14.051Z,4.89
2018-03-24T04:06:42.324Z,4.95
2018-03-24T04:09:10.591Z,4.87
2018-03-24T04:11:38.876Z,4.86
2018-03-24T04:14:07.156Z,4.87
2018-03-24T04:16:35.440Z,4.85
2018-03-24T04:19:03.708Z,4.88
2018-03-24T04:21:31.972Z,4.90
2018-03-24T04:24:00.260Z,4.84
2018-03-24T04:26:28.542Z,4.89
2018-03-24T04:28:56.820Z,4.93
2018-03-24T04:31:25.096Z,5.03
2018-03-24T04:33:53.372Z,5.06
2018-03-24T04:36:21.645Z,5.10
2018-03-24T04:38:49.931Z,5.16
2018-03-24T04:41:18.208Z,5.25
2018-03-24T04:43:46.468Z,5.16
2018-03-24T04:46:14.820Z,5.21
2018-03-24T04:48:43.093Z,5.02
2018-03-24T04:51:11.363Z,5.12
2018-03-24T04:53:39.640Z,5.14
2018-03-24T04:56:07.935Z,5.01
2018-03-24T04:58:36.200Z,4.95
2018-03-24T05:01:04.472Z,4.98
2018-03-24T05:03:32.768Z,5.16
2018-03-24T05:06:01.031Z,5.16
2018-03-24T05:08:29.320Z,5.22
2018-03-24T05:10:57.595Z,5.20
2018-03-24T05:13:25.888Z,5.18
2018-03-24T05:15:54.161Z,5.07
2018-03-24T05:18:22.432Z,5.03
2018-03-24T05:20:50.720Z,4.87
2018-03-24T05:23:18.997Z,5.01
2018-03-24T05:25:47.280Z,5.22
2018-03-24T05:28:15.556Z,5.10
2018-03-24T05:30:43.844Z,5.12
2018-03-24T05:33:12.134Z,5.17
2018-03-24T05:35:40.408Z,4.99
2018-03-24T05:38:08.685Z,5.05
2018-03-24T05:40:36.958Z,5.00
2018-03-24T05:43:05.247Z,5.18
2018-03-24T05:45:33.520Z,5.44
2018-03-24T05:48:01.814Z,5.46
2018-03-24T05:50:30.091Z,5.59
2018-03-24T05:52:58.375Z,5.73
2018-03-24T05:55:27.513Z,5.84
2018-03-24T05:57:55.796Z,5.82
2018-03-24T06:00:24.087Z,5.85
2018-03-24T06:02:52.362Z,5.84
2018-03-24T06:05:20.640Z,5.69
2018-03-24T06:07:48.909Z,5.93
2018-03-24T06:10:17.195Z,5.79
2018-03-24T06:12:45.464Z,5.96
2018-03-24T06:15:13.747Z,6.08
2018-03-24T06:17:42.012Z,5.95
2018-03-24T06:20:10.310Z,6.13
2018-03-24T06:22:38.580Z,5.94
2018-03-24T06:25:06.848Z,5.97
2018-03-24T06:27:35.141Z,6.06
2018-03-24T06:30:03.918Z,6.16
2018-03-24T06:32:32.212Z,6.31
2018-03-24T06:35:00.475Z,6.33
2018-03-24T06:37:28.760Z,6.70
2018-03-24T06:39:57.028Z,6.88
2018-03-24T06:42:25.316Z,7.04
2018-03-24T06:44:53.626Z,7.16
2018-03-24T06:47:21.860Z,7.20
2018-03-24T06:49:50.152Z,7.11
2018-03-24T06:52:18.438Z,7.02
2018-03-24T06:54:46.707Z,7.96
2018-03-24T06:57:14.980Z,8.21
2018-03-24T06:59:43.269Z,8.62
2018-03-24T07:02:11.545Z,8.91
2018-03-24T07:04:39.833Z,9.50
2018-03-24T07:07:08.120Z,9.95
2018-03-24T07:09:36.392Z,10.37
2018-03-24T07:12:04.675Z,9.58
2018-03-24T07:14:32.944Z,10.39
2018-03-24T07:17:01.246Z,10.14
2018-03-24T07:19:29.528Z,10.49
2018-03-24T07:21:57.825Z,10.00
2018-03-24T07:24:26.121Z,10.54
2018-03-24T07:26:54.399Z,10.20
2018-03-24T07:29:22.694Z,10.70
2018-03-24T07:31:50.991Z,10.83
2018-03-24T07:34:19.272Z,10.69
2018-03-24T07:36:47.585Z,11.28
2018-03-24T07:39:15.853Z,11.28
2018-03-24T07:41:44.133Z,11.44
2018-03-24T07:44:12.428Z,11.66
2018-03-24T07:46:40.710Z,11.39
2018-03-24T07:49:09.094Z,12.08
2018-03-24T07:51:38.107Z,11.86
2018-03-24T07:54:06.564Z,11.87
2018-03-24T07:56:34.867Z,12.24
2018-03-24T07:59:03.147Z,12.38
2018-03-24T08:01:31.453Z,11.54
2018-03-24T08:03:59.752Z,10.85
2018-03-24T08:06:28.032Z,11.57
2018-03-24T08:08:56.308Z,11.63
2018-03-24T08:11:24.580Z,12.34
2018-03-24T08:13:52.877Z,12.64
2018-03-24T08:16:21.153Z,13.53
2018-03-24T08:18:49.446Z,14.27
2018-03-24T08:21:17.741Z,13.64
2018-03-24T08:23:46.097Z,13.46
2018-03-24T08:26:14.374Z,13.34
2018-03-24T08:28:42.656Z,14.25
2018-03-24T08:31:10.961Z,14.08
2018-03-24T08:33:39.248Z,12.91
2018-03-24T08:36:07.536Z,12.84
2018-03-24T08:38:35.822Z,12.37
2018-03-24T08:41:04.123Z,13.57
2018-03-24T08:43:32.401Z,14.32
2018-03-24T08:46:00.704Z,15.08
2018-03-24T08:48:28.972Z,14.02
2018-03-24T08:50:57.258Z,14.21
2018-03-24T08:53:25.544Z,13.90
2018-03-24T08:55:53.830Z,12.69
2018-03-24T08:58:22.107Z,13.67
2018-03-24T09:00:50.396Z,12.86
2018-03-24T09:03:18.724Z,13.35
2018-03-24T09:05:46.996Z,14.18
2018-03-24T09:08:15.272Z,13.26
2018-03-24T09:10:43.565Z,12.50
2018-03-24T09:13:11.876Z,12.40
2018-03-24T09:15:57.304Z,12.83
2018-03-24T09:18:25.579Z,12.68
2018-03-24T09:20:53.868Z,13.47
2018-03-24T09:23:22.163Z,12.84
2018-03-24T09:25:50.428Z,13.26
2018-03-24T09:28:18.708Z,12.81
2018-03-24T09:30:47.000Z,13.39
2018-03-24T09:33:15.281Z,14.35
2018-03-24T09:35:43.587Z,14.02
2018-03-24T09:38:11.861Z,14.26
2018-03-24T09:40:40.145Z,14.07
2018-03-24T09:43:08.442Z,13.49
2018-03-24T09:45:36.745Z,12.65
2018-03-24T09:48:05.037Z,12.62
2018-03-24T09:53:27.321Z,13.55
2018-03-24T09:55:55.610Z,13.02
2018-03-24T09:58:23.894Z,12.76
2018-03-24T10:00:52.196Z,12.75
2018-03-24T10:03:20.516Z,13.36
2018-03-24T10:05:48.806Z,13.48
2018-03-24T10:08:17.086Z,13.00
2018-03-24T10:10:45.372Z,12.67
2018-03-24T10:13:13.653Z,12.98
2018-03-24T10:15:55.601Z,12.61
2018-03-24T10:18:29.188Z,13.08
2018-03-24T10:21:00.107Z,13.37
2018-03-24T10:26:56.328Z,12.76
2018-03-24T10:29:24.600Z,13.17
2018-03-24T10:32:02.661Z,13.00
2018-03-24T10:34:31.848Z,13.06
2018-03-24T10:37:00.160Z,13.06
2018-03-24T10:39:28.462Z,12.96
2018-03-24T10:41:56.790Z,13.35
2018-03-24T10:44:25.081Z,12.99
2018-03-24T10:46:53.412Z,12.79
2018-03-24T10:49:21.706Z,13.37
2018-03-24T10:51:56.453Z,12.99
2018-03-24T10:54:24.758Z,13.23
2018-03-24T10:57:02.813Z,13.13
2018-03-24T10:59:31.120Z,13.36
2018-03-24T11:02:03.524Z,14.51
2018-03-24T11:04:32.464Z,14.36
2018-03-24T11:07:01.458Z,13.86
2018-03-24T11:09:29.747Z,13.72
2018-03-24T11:11:58.047Z,13.51
2018-03-24T11:14:26.305Z,13.24
2018-03-24T11:16:54.611Z,13.07
2018-03-24T11:19:22.889Z,13.34
2018-03-24T11:21:51.172Z,13.47
2018-03-24T11:24:19.452Z,13.35
2018-03-24T11:26:47.740Z,13.31
2018-03-24T11:29:16.008Z,13.48
2018-03-24T11:31:44.309Z,12.98
2018-03-24T11:34:12.570Z,13.21
2018-03-24T11:36:40.844Z,13.38
2018-03-24T11:39:09.158Z,13.37
2018-03-24T11:41:37.432Z,13.90
2018-03-24T11:44:05.715Z,13.84
2018-03-24T11:46:33.996Z,13.73
2018-03-24T11:49:02.281Z,13.50
2018-03-24T11:51:30.544Z,13.68
2018-03-24T11:53:58.836Z,13.89
2018-03-24T11:56:27.112Z,14.07
2018-03-24T11:58:55.408Z,13.77
2018-03-24T12:01:25.639Z,13.36
2018-03-24T12:03:53.904Z,13.56
2018-03-24T12:06:22.189Z,13.39
2018-03-24T12:08:50.456Z,13.32
2018-03-24T12:11:18.737Z,14.53
2018-03-24T12:13:47.007Z,13.74
2018-03-24T12:16:15.296Z,14.13
2018-03-24T12:18:43.572Z,13.65
2018-03-24T12:21:11.844Z,13.60
2018-03-24T12:23:40.129Z,13.13
2018-03-24T12:26:08.402Z,12.67
2018-03-24T12:28:36.687Z,13.01
2018-03-24T12:31:04.952Z,13.31
2018-03-24T12:33:33.236Z,12.82
2018-03-24T12:36:01.510Z,13.08
2018-03-24T12:38:29.792Z,13.50
2018-03-24T12:40:58.056Z,14.40
2018-03-24T12:43:26.336Z,14.56
2018-03-24T12:45:54.620Z,14.37
2018-03-24T12:48:22.893Z,14.13
2018-03-24T12:50:51.193Z,14.05
2018-03-24T12:53:19.466Z,14.16
2018-03-24T12:55:47.740Z,13.68
2018-03-24T12:58:16.014Z,13.95
2018-03-24T13:00:44.296Z,14.67
2018-03-24T13:03:12.565Z,14.54
2018-03-24T13:05:40.838Z,14.09
2018-03-24T13:08:09.116Z,14.14
2018-03-24T13:10:37.414Z,14.51
2018-03-24T13:13:05.692Z,14.85
2018-03-24T13:15:33.959Z,14.61
2018-03-24T13:18:02.297Z,14.87
2018-03-24T13:20:30.568Z,14.69
2018-03-24T13:22:58.835Z,14.81
2018-03-24T13:25:27.112Z,15.25
2018-03-24T13:27:55.381Z,15.61
2018-03-24T13:30:23.669Z,15.43
2018-03-24T13:32:51.936Z,15.01
2018-03-24T13:35:20.220Z,15.27
2018-03-24T13:37:48.497Z,14.92
2018-03-24T13:40:16.793Z,15.30
2018-03-24T13:42:45.079Z,15.28
2018-03-24T13:45:13.343Z,14.83
2018-03-24T13:47:41.627Z,14.80
2018-03-24T13:50:09.900Z,14.18
2018-03-24T13:52:38.180Z,14.37
2018-03-24T13:55:06.452Z,15.20
2018-03-24T13:57:34.737Z,14.25
2018-03-24T14:00:02.999Z,14.42
2018-03-24T14:02:31.296Z,13.88
2018-03-24T14:04:59.569Z,14.11
2018-03-24T14:07:27.836Z,14.30
2018-03-24T14:09:56.116Z,14.39
2018-03-24T14:12:24.391Z,14.41
2018-03-24T14:14:52.664Z,14.57
2018-03-24T14:17:20.932Z,14.40
2018-03-24T14:19:49.216Z,14.26
2018-03-24T14:22:17.492Z,14.32
2018-03-24T14:24:45.773Z,15.04
2018-03-24T14:27:14.073Z,14.29
2018-03-24T14:29:42.356Z,14.09
2018-03-24T14:32:10.631Z,13.87
2018-03-24T14:34:38.900Z,14.29
2018-03-24T14:37:07.180Z,14.27
2018-03-24T14:39:35.460Z,14.41
2018-03-24T14:42:03.744Z,14.30
2018-03-24T14:44:32.024Z,14.46
2018-03-24T14:47:00.299Z,14.52
2018-03-24T14:49:28.564Z,14.48
2018-03-24T14:51:56.843Z,14.67
2018-03-24T14:54:25.164Z,14.82
2018-03-24T14:56:53.380Z,15.31
2018-03-24T14:59:21.660Z,15.06
2018-03-24T15:01:49.929Z,15.11
2018-03-24T15:04:18.217Z,14.83
2018-03-24T15:06:46.488Z,14.90
2018-03-24T15:09:14.776Z,14.79
2018-03-24T15:11:43.052Z,14.37
2018-03-24T15:14:11.337Z,14.50
2018-03-24T15:16:39.604Z,14.63
2018-03-24T15:19:07.879Z,14.64
2018-03-24T15:21:36.774Z,14.48
2018-03-24T15:24:05.013Z,14.53
2018-03-24T15:26:33.296Z,14.77
2018-03-24T15:29:13.395Z,14.50
2018-03-24T15:31:53.499Z,14.74
2018-03-24T15:34:33.446Z,14.58
2018-03-24T15:37:01.732Z,14.37
2018-03-24T15:39:30.005Z,14.00
2018-03-24T15:41:58.283Z,13.70
2018-03-24T15:44:26.563Z,14.04
2018-03-24T15:46:54.832Z,14.31
2018-03-24T15:49:23.128Z,13.90
2018-03-24T15:51:51.404Z,14.03
2018-03-24T15:54:19.732Z,13.89
2018-03-24T15:56:47.956Z,13.95
2018-03-24T15:59:16.238Z,13.98
2018-03-24T16:01:44.536Z,13.99
2018-03-24T16:04:12.787Z,14.09
2018-03-24T16:06:41.052Z,13.77
2018-03-24T16:09:09.320Z,13.92
2018-03-24T16:11:38.333Z,14.20
2018-03-24T16:14:10.015Z,14.21
2018-03-24T16:16:38.303Z,13.80
2018-03-24T16:19:06.611Z,13.95
2018-03-24T16:21:34.894Z,13.86
2018-03-24T16:24:03.172Z,13.77
2018-03-24T16:26:31.464Z,13.78
2018-03-24T16:28:59.741Z,13.93
2018-03-24T16:31:28.012Z,13.34
2018-03-24T16:33:56.309Z,13.55
2018-03-24T16:36:24.587Z,13.39
2018-03-24T16:38:52.881Z,13.19
2018-03-24T16:41:21.143Z,13.43
2018-03-24T16:43:49.425Z,13.32
2018-03-24T16:46:17.700Z,13.33
2018-03-24T16:48:47.002Z,13.29
2018-03-24T16:51:15.280Z,13.26
2018-03-24T16:53:43.583Z,13.23
2018-03-24T16:56:11.888Z,13.10
2018-03-24T16:58:40.164Z,13.33
2018-03-24T17:01:10.386Z,13.08
2018-03-24T17:03:41.907Z,12.82
2018-03-24T17:06:10.187Z,12.96
2018-03-24T17:08:38.461Z,12.91
2018-03-24T17:11:06.766Z,12.97
2018-03-24T17:13:35.038Z,12.88
2018-03-24T17:16:03.305Z,12.72
2018-03-24T17:18:31.592Z,12.78
2018-03-24T17:20:59.896Z,12.59
2018-03-24T17:23:28.174Z,12.33
2018-03-24T17:25:56.448Z,12.43
2018-03-24T17:28:24.724Z,12.50
2018-03-24T17:30:52.996Z,12.37
2018-03-24T17:33:21.280Z,12.34
2018-03-24T17:35:49.551Z,12.28
2018-03-24T17:38:17.837Z,12.39
2018-03-24T17:40:46.168Z,12.24
2018-03-24T17:43:14.445Z,12.34
2018-03-24T17:45:42.728Z,11.99
2018-03-24T17:48:11.013Z,11.93
2018-03-24T17:50:39.303Z,12.07
2018-03-24T17:53:07.581Z,11.94
2018-03-24T17:55:35.851Z,11.89
2018-03-24T17:58:04.150Z,11.73
2018-03-24T18:00:32.434Z,11.58
2018-03-24T18:03:00.704Z,11.66
2018-03-24T18:05:28.979Z,11.81
2018-03-24T18:07:57.296Z,11.61
2018-03-24T18:10:25.572Z,11.58
2018-03-24T18:12:53.860Z,11.85
2018-03-24T18:15:22.128Z,11.85
2018-03-24T18:17:50.414Z,11.36
2018-03-24T18:20:18.696Z,11.58
2018-03-24T18:22:46.972Z,11.63
2018-03-24T18:25:15.263Z,11.63
2018-03-24T18:27:43.528Z,11.69
2018-03-24T18:30:11.812Z,11.54
2018-03-24T18:32:40.096Z,11.41
2018-03-24T18:35:08.409Z,11.37
2018-03-24T18:37:36.665Z,11.40
2018-03-24T18:40:04.929Z,11.41
2018-03-24T18:42:33.216Z,11.44
2018-03-24T18:45:01.478Z,11.41
2018-03-24T18:47:29.753Z,11.29
2018-03-24T18:50:04.284Z,11.32
2018-03-24T18:52:49.908Z,11.24
2018-03-24T18:55:18.189Z,11.26
2018-03-24T18:57:46.479Z,11.26
2018-03-24T19:00:17.954Z,11.19
2018-03-24T19:02:46.201Z,11.20
2018-03-24T19:05:14.472Z,11.06
2018-03-24T19:07:42.760Z,11.02
2018-03-24T19:10:11.044Z,10.93
2018-03-24T19:12:39.322Z,11.11
2018-03-24T19:15:07.612Z,11.11
2018-03-24T19:17:35.888Z,10.93
2018-03-24T19:20:04.187Z,10.74
2018-03-24T19:22:32.450Z,10.84
2018-03-24T19:25:00.756Z,10.94
2018-03-24T19:27:30.766Z,10.88
2018-03-24T19:29:59.292Z,10.84
2018-03-24T19:32:27.592Z,10.84
2018-03-24T19:34:55.887Z,10.84
2018-03-24T19:37:24.163Z,10.64
2018-03-24T19:39:52.436Z,10.60
2018-03-24T19:42:20.716Z,10.44
2018-03-24T19:44:48.988Z,10.54
2018-03-24T19:47:17.282Z,10.24
2018-03-24T19:49:45.562Z,10.08
2018-03-24T19:52:13.840Z,10.10
2018-03-24T19:54:42.140Z,10.11
2018-03-24T19:57:10.415Z,10.27
2018-03-24T19:59:38.703Z,9.94
2018-03-24T20:02:06.964Z,9.86
2018-03-24T20:04:35.244Z,9.85
2018-03-24T20:07:03.517Z,9.76
2018-03-24T20:09:31.793Z,9.88
2018-03-24T20:12:00.067Z,9.82
2018-03-24T20:14:28.351Z,9.62
2018-03-24T20:16:56.620Z,9.57
2018-03-24T20:19:24.893Z,9.39
2018-03-24T20:21:53.169Z,9.32
2018-03-24T20:24:21.432Z,9.33
2018-03-24T20:26:49.717Z,9.24
2018-03-24T20:29:17.987Z,9.33
2018-03-24T20:31:46.260Z,9.05
2018-03-24T20:34:14.520Z,8.89
2018-03-24T20:36:42.819Z,9.08
2018-03-24T20:39:11.092Z,9.11
2018-03-24T20:41:39.367Z,8.87
2018-03-24T20:44:07.645Z,8.85
2018-03-24T20:46:35.916Z,8.64
2018-03-24T20:49:04.196Z,8.58
2018-03-24T20:51:32.468Z,8.56
2018-03-24T20:54:00.748Z,8.57
2018-03-24T20:56:29.025Z,8.38
2018-03-24T20:58:57.312Z,8.47
2018-03-24T21:01:25.629Z,8.54
2018-03-24T21:03:53.864Z,8.51
2018-03-24T21:06:22.149Z,8.47
2018-03-24T21:08:50.420Z,8.42
2018-03-24T21:11:18.708Z,8.31
2018-03-24T21:13:46.977Z,8.20
2018-03-24T21:16:15.270Z,8.05
2018-03-24T21:18:43.528Z,8.15
2018-03-24T21:21:11.823Z,8.04
2018-03-24T21:23:40.112Z,8.09
2018-03-24T21:26:08.376Z,8.11
2018-03-24T21:28:36.652Z,7.87
2018-03-24T21:31:04.929Z,7.73
2018-03-24T21:33:33.201Z,7.56
2018-03-24T21:36:01.467Z,7.57
2018-03-24T21:38:29.768Z,7.55
2018-03-24T21:40:58.053Z,7.68
2018-03-24T21:43:26.355Z,7.53
2018-03-24T21:45:54.630Z,7.52
2018-03-24T21:48:22.901Z,7.58
2018-03-24T21:50:51.184Z,7.60
2018-03-24T21:53:19.447Z,7.63
2018-03-24T21:55:47.728Z,7.57
2018-03-24T21:58:16.000Z,7.44
2018-03-24T22:00:44.287Z,7.41
2018-03-24T22:03:12.564Z,7.59
2018-03-24T22:05:40.848Z,7.48
2018-03-24T22:08:09.119Z,7.45
2018-03-24T22:10:37.410Z,7.56
2018-03-24T22:13:05.680Z,7.52
2018-03-24T22:15:33.954Z,7.56
2018-03-24T22:18:02.248Z,7.52
2018-03-24T22:20:30.515Z,7.59
2018-03-24T22:22:58.807Z,7.54
2018-03-24T22:25:27.171Z,7.55
2018-03-24T22:27:55.457Z,7.32
2018-03-24T22:30:23.715Z,7.53
2018-03-24T22:32:52.955Z,7.45
2018-03-24T22:35:21.216Z,7.69
2018-03-24T22:37:49.492Z,7.51
2018-03-24T22:40:17.776Z,7.39
2018-03-24T22:42:46.043Z,7.41
2018-03-24T22:45:14.402Z,7.46
2018-03-24T22:47:42.603Z,7.28
2018-03-24T22:50:10.885Z,7.52
2018-03-24T22:52:39.148Z,7.52
2018-03-24T22:55:07.430Z,7.57
2018-03-24T22:57:35.696Z,7.61
2018-03-24T23:00:03.965Z,7.51
2018-03-24T23:02:32.247Z,7.43
2018-03-24T23:05:00.524Z,7.22
2018-03-24T23:07:28.812Z,7.11
2018-03-24T23:09:57.080Z,6.81
2018-03-24T23:12:25.371Z,6.99
2018-03-24T23:14:53.702Z,6.77
2018-03-24T23:17:21.916Z,6.86
2018-03-24T23:19:50.192Z,6.75
2018-03-24T23:22:18.464Z,6.88
2018-03-24T23:24:46.745Z,7.11
2018-03-24T23:27:15.004Z,7.16
2018-03-24T23:29:43.292Z,7.25
2018-03-24T23:32:11.563Z,7.23
2018-03-24T23:34:39.848Z,7.15
2018-03-24T23:37:08.112Z,7.09
2018-03-24T23:39:39.850Z,7.04
2018-03-24T23:42:08.111Z,7.07
2018-03-24T23:44:36.387Z,6.90
2018-03-24T23:47:04.663Z,6.78
2018-03-24T23:49:32.931Z,6.51
2018-03-24T23:52:01.217Z,6.71
2018-03-24T23:54:29.499Z,6.71
2018-03-24T23:56:57.784Z,6.91
2018-03-24T23:59:26.061Z,6.92
